createdAt,value
2022-08-17T00:03:10.067Z,27.00
2022-08-17T00:08:16.790Z,26.90
2022-08-17T00:13:23.902Z,26.90
2022-08-17T00:19:01.933Z,26.80
2022-08-17T00:23:52.449Z,27.00
2022-08-17T00:28:56.102Z,27.30
2022-08-17T00:33:59.378Z,26.90
2022-08-17T00:39:04.118Z,27.20
2022-08-17T00:44:09.734Z,27.60
2022-08-17T00:49:15.949Z,27.30
2022-08-17T00:54:26.185Z,27.60
2022-08-17T00:59:32.983Z,28.20
2022-08-17T01:04:37.411Z,28.40
2022-08-17T01:09:43.013Z,27.70
2022-08-17T01:14:46.172Z,28.50
2022-08-17T01:19:49.383Z,28.00
2022-08-17T01:24:59.808Z,27.90
2022-08-17T01:30:56.672Z,29.10
2022-08-17T01:35:33.095Z,29.10
2022-08-17T01:41:25.436Z,28.20
2022-08-17T01:59:24.906Z,28.90
2022-08-17T02:04:28.200Z,29.40
2022-08-17T02:09:31.557Z,28.60
2022-08-17T02:14:36.143Z,28.70
2022-08-17T02:19:39.284Z,29.20
2022-08-17T02:24:58.202Z,28.80
2022-08-17T02:30:59.127Z,28.90
2022-08-17T02:35:30.638Z,29.30
2022-08-17T02:40:36.093Z,29.20
2022-08-17T02:45:41.026Z,29.10
2022-08-17T02:50:44.177Z,29.40
2022-08-17T02:55:47.391Z,29.30
2022-08-17T03:00:51.942Z,29.10
2022-08-17T03:05:55.520Z,29.60
2022-08-17T03:10:59.127Z,29.20
2022-08-17T03:16:03.667Z,29.20
2022-08-17T03:21:08.598Z,29.50
2022-08-17T03:26:15.559Z,29.10
2022-08-17T03:31:21.532Z,29.40
2022-08-17T03:36:26.069Z,29.60
2022-08-17T03:41:29.418Z,29.40
2022-08-17T03:46:51.508Z,29.70
2022-08-17T03:52:13.712Z,29.70
2022-08-17T03:57:17.539Z,29.70
2022-08-17T04:02:25.541Z,29.60
2022-08-17T04:07:30.977Z,30.20
2022-08-17T04:12:47.268Z,30.00
2022-08-17T04:17:51.847Z,30.60
2022-08-17T04:23:00.069Z,30.40
2022-08-17T04:28:04.959Z,31.00
2022-08-17T04:33:15.583Z,31.00
2022-08-17T04:38:21.261Z,30.90
2022-08-17T04:43:26.230Z,30.60
2022-08-17T04:48:36.584Z,30.50
2022-08-17T04:53:41.501Z,30.80
2022-08-17T04:58:45.348Z,30.60
2022-08-17T05:03:50.021Z,30.50
2022-08-17T05:08:53.634Z,30.90
2022-08-17T05:13:58.762Z,30.80
2022-08-17T05:19:03.261Z,30.80
2022-08-17T05:24:35.417Z,31.50
2022-08-17T05:29:35.090Z,31.00
2022-08-17T05:34:40.209Z,31.30
2022-08-17T05:39:43.396Z,32.10
2022-08-17T05:44:46.565Z,31.60
2022-08-17T05:49:51.137Z,31.90
2022-08-17T05:55:11.220Z,32.50
2022-08-17T06:00:20.437Z,33.50
2022-08-17T06:05:47.549Z,33.30
2022-08-17T06:10:58.518Z,33.60
2022-08-17T06:16:28.172Z,33.70
2022-08-17T06:21:36.901Z,33.80
2022-08-17T06:26:44.335Z,34.10
2022-08-17T06:31:47.760Z,33.50
2022-08-17T06:37:03.752Z,33.10
2022-08-17T06:43:02.358Z,34.30
2022-08-17T06:47:49.012Z,34.40
2022-08-17T06:52:58.780Z,34.00
2022-08-17T06:58:16.021Z,34.00
2022-08-17T07:03:29.932Z,34.10
2022-08-17T07:08:47.341Z,34.30
2022-08-17T07:13:58.294Z,34.20
2022-08-17T07:19:01.657Z,34.10
2022-08-17T07:24:30.162Z,33.50
2022-08-17T07:29:39.754Z,33.90
2022-08-17T07:35:16.347Z,33.70
2022-08-17T07:40:28.426Z,34.40
2022-08-17T07:45:49.680Z,34.50
2022-08-17T07:50:54.096Z,33.30
2022-08-17T07:55:58.778Z,33.50
2022-08-17T08:01:09.055Z,33.30
2022-08-17T08:06:22.173Z,33.20
2022-08-17T08:11:34.872Z,32.90
2022-08-17T08:16:38.207Z,32.70
2022-08-17T08:21:50.373Z,32.40
2022-08-17T08:27:02.400Z,32.00
2022-08-17T08:32:18.307Z,31.70
2022-08-17T08:37:37.995Z,31.10
2022-08-17T08:42:54.257Z,30.30
2022-08-17T08:48:22.981Z,29.90
2022-08-17T08:53:47.821Z,30.00
2022-08-17T08:58:59.227Z,28.90
2022-08-17T09:04:29.891Z,28.70
2022-08-17T09:09:45.606Z,28.90
2022-08-17T09:14:57.900Z,27.60
2022-08-17T09:20:06.288Z,27.10
2022-08-17T09:25:13.562Z,27.90
2022-08-17T09:30:19.699Z,26.60
2022-08-17T09:35:36.789Z,26.30
2022-08-17T09:40:51.845Z,25.90
2022-08-17T09:46:01.913Z,24.50
2022-08-17T09:51:08.741Z,24.30
2022-08-17T09:56:28.705Z,24.90
2022-08-17T10:01:39.880Z,23.30
2022-08-17T10:06:52.088Z,22.20
2022-08-17T10:12:21.468Z,22.30
2022-08-17T10:17:34.370Z,22.40
2022-08-17T10:23:00.097Z,22.00
2022-08-17T10:28:09.029Z,21.30
2022-08-17T10:33:21.638Z,20.80
2022-08-17T10:38:46.136Z,20.80
2022-08-17T10:44:39.319Z,21.50
2022-08-17T10:49:33.937Z,19.70
2022-08-17T10:54:48.305Z,20.00
2022-08-17T10:59:53.315Z,19.60
2022-08-17T11:05:13.544Z,19.60
2022-08-17T11:10:33.739Z,18.90
2022-08-17T11:15:49.593Z,18.70
2022-08-17T11:21:22.306Z,18.70
2022-08-17T11:26:28.064Z,18.50
2022-08-17T11:31:38.990Z,18.70
2022-08-17T11:37:15.414Z,17.50
2022-08-17T11:42:36.357Z,17.20
2022-08-17T11:48:27.003Z,17.20
2022-08-17T11:54:32.934Z,17.00
2022-08-17T12:00:00.348Z,18.10
2022-08-17T12:05:32.441Z,17.50
2022-08-17T12:10:41.014Z,17.40
2022-08-17T12:15:49.699Z,16.80
2022-08-17T12:21:16.926Z,17.00
2022-08-17T12:26:26.565Z,16.40
2022-08-17T12:31:34.533Z,16.30
2022-08-17T12:36:41.373Z,16.70
2022-08-17T12:41:50.198Z,16.70
2022-08-17T12:46:56.509Z,16.20
2022-08-17T12:52:07.964Z,16.20
2022-08-17T12:57:20.315Z,15.90
2022-08-17T13:02:39.188Z,15.60
2022-08-17T13:07:43.700Z,15.80
2022-08-17T13:12:51.021Z,15.80
2022-08-17T13:18:00.008Z,15.70
2022-08-17T13:23:21.917Z,14.80
2022-08-17T13:28:35.669Z,14.60
2022-08-17T13:33:44.861Z,14.90
2022-08-17T13:39:09.061Z,15.10
2022-08-17T13:44:32.882Z,15.00
2022-08-17T13:49:48.469Z,14.70
2022-08-17T13:54:55.673Z,14.60
2022-08-17T14:00:12.905Z,14.70
2022-08-17T14:05:16.317Z,14.00
2022-08-17T14:10:20.242Z,14.50
2022-08-17T14:15:53.989Z,14.40
2022-08-17T14:20:49.964Z,13.60
2022-08-17T14:25:53.173Z,14.30
2022-08-17T14:30:57.730Z,14.30
2022-08-17T14:36:00.847Z,13.50
2022-08-17T14:41:04.751Z,14.20
2022-08-17T14:46:09.357Z,14.10
2022-08-17T14:51:12.995Z,13.60
2022-08-17T14:56:16.251Z,13.80
2022-08-17T15:01:22.421Z,13.70
2022-08-17T15:06:25.660Z,13.30
2022-08-17T15:11:28.814Z,13.30
2022-08-17T15:16:36.160Z,13.40
2022-08-17T15:21:39.904Z,13.40
2022-08-17T15:26:43.069Z,13.40
2022-08-17T15:31:47.871Z,13.40
2022-08-17T15:36:51.029Z,13.20
2022-08-17T15:41:58.538Z,13.40
2022-08-17T15:47:03.430Z,13.40
2022-08-17T15:52:16.921Z,12.70
2022-08-17T15:57:20.627Z,12.20
2022-08-17T16:03:46.107Z,12.60
2022-08-17T16:07:51.091Z,12.80
2022-08-17T16:12:55.540Z,13.30
2022-08-17T16:18:00.634Z,13.20
2022-08-17T16:23:03.834Z,13.20
2022-08-17T16:28:07.590Z,13.20
2022-08-17T16:33:12.820Z,13.50
2022-08-17T16:38:15.980Z,13.30
2022-08-17T16:43:19.281Z,13.40
2022-08-17T16:48:24.139Z,13.60
2022-08-17T16:53:27.302Z,13.70
2022-08-17T16:58:30.433Z,14.00
2022-08-17T17:03:35.949Z,14.00
2022-08-17T17:08:44.886Z,14.40
2022-08-17T17:13:54.070Z,14.40
2022-08-17T17:19:12.577Z,15.00
2022-08-17T17:24:19.639Z,15.40
2022-08-17T17:35:58.645Z,15.80
2022-08-17T17:41:05.319Z,17.20
2022-08-17T17:46:27.521Z,16.50
2022-08-17T17:52:08.550Z,16.50
2022-08-17T17:57:10.140Z,16.20
2022-08-17T18:02:40.610Z,16.10
2022-08-17T18:07:53.198Z,16.20
2022-08-17T18:13:08.456Z,16.70
2022-08-17T18:18:37.693Z,17.00
2022-08-17T18:23:48.097Z,17.10
2022-08-17T18:28:51.930Z,17.50
2022-08-17T18:34:43.418Z,17.50
2022-08-17T18:39:40.919Z,17.70
2022-08-17T18:44:49.587Z,17.80
2022-08-17T18:49:58.020Z,17.90
2022-08-17T18:55:08.543Z,18.10
2022-08-17T19:00:14.488Z,18.60
2022-08-17T19:05:30.770Z,18.30
2022-08-17T19:10:46.574Z,18.50
2022-08-17T19:16:13.908Z,18.80
2022-08-17T19:21:21.263Z,18.60
2022-08-17T19:26:50.692Z,19.00
2022-08-17T19:31:55.159Z,19.20
2022-08-17T19:37:02.575Z,19.20
2022-08-17T19:42:16.099Z,19.10
2022-08-17T19:47:51.250Z,19.40
2022-08-17T19:52:54.788Z,19.70
2022-08-17T19:58:07.961Z,19.30
2022-08-17T20:03:16.863Z,19.70
2022-08-17T20:08:24.032Z,20.00
2022-08-17T20:13:33.863Z,20.10
2022-08-17T20:18:45.458Z,20.60
2022-08-17T20:23:55.071Z,20.50
2022-08-17T20:29:40.359Z,20.90
2022-08-17T20:34:47.650Z,20.90
2022-08-17T20:40:21.802Z,20.90
2022-08-17T20:46:03.206Z,20.70
2022-08-17T20:51:31.556Z,20.60
2022-08-17T20:56:57.842Z,21.10
2022-08-17T21:02:18.489Z,21.20
2022-08-17T21:07:29.230Z,21.80
2022-08-17T21:12:44.005Z,22.20
2022-08-17T21:17:59.297Z,22.10
2022-08-17T21:23:22.621Z,22.40
2022-08-17T21:28:34.666Z,22.40
2022-08-17T21:33:40.384Z,22.40
2022-08-17T21:38:57.413Z,22.20
2022-08-17T21:44:07.492Z,21.90
2022-08-17T21:49:14.468Z,22.40
2022-08-17T21:54:31.777Z,21.80
2022-08-17T21:59:38.688Z,21.70
2022-08-17T22:04:44.633Z,21.40
2022-08-17T22:09:50.046Z,21.70
2022-08-17T22:15:01.505Z,21.80
2022-08-17T22:20:14.316Z,21.90
2022-08-17T22:25:22.898Z,22.20
2022-08-17T22:30:33.164Z,21.30
2022-08-17T22:35:43.091Z,22.30
2022-08-17T22:40:49.736Z,21.90
2022-08-17T22:45:55.697Z,22.80
2022-08-17T22:51:12.890Z,23.70
2022-08-17T22:56:37.064Z,24.90
2022-08-17T23:01:41.277Z,25.00
2022-08-17T23:06:45.810Z,25.50
2022-08-17T23:11:51.984Z,26.40
2022-08-17T23:16:55.166Z,27.00
2022-08-17T23:22:00.442Z,27.70
2022-08-17T23:27:07.761Z,28.90
2022-08-17T23:32:13.853Z,28.80
2022-08-17T23:37:19.329Z,29.70
2022-08-17T23:42:22.729Z,30.80
2022-08-17T23:47:26.058Z,29.80
2022-08-17T23:52:30.703Z,30.20
2022-08-17T23:57:35.932Z,31.30
